Skip Navigation Links Skip Navigation Links

Current Weather

Essex County, Caldwell, N.J.

For information only: do not use for flight planning or navigation.
Latest weather
Observation time Saturday, June 6, 2020 8:53 PM EDT
Local time Saturday, June 6, 2020 9:14 PM EDT
Flight conditions Visual Meteorological Conditions
Winds
Wind direction North-Northwest (330°)
Wind speed 7 mph
Visibility 10 mi.
Sky condition
Ceiling unlimited
Sky clear
Temperature 79°F
Dewpoint 48°F
Altimeter 29.78 in.Hg
Derived measurements
Relative humidity 34%
Heat index 79°F
Density altitude 1780 ft.
Sea-level pressure 29.79 in.Hg
Remarks
Fully automated report.
Automated weather observing station with precipitation discriminator.
METAR KCDW 070053Z AUTO 33006KT 10SM CLR 26/09 A2978 RMK AO2 SLP088 T02610089

Settings

Location code

InnerDrive.Weather 4.0.6770.0 Release CLR 4.0.30319.42000
Copyright ©2018 Inner Drive Technology. All rights reserved. Portions Copyright ©1986-2018 David Braverman.

Find weather

Site navigation


Skip Navigation Links

Place info

Page info

PayPal - The safer, easier way to pay online!

Return home.

Copyright ©2020 Inner Drive Technology. Purveyors of fine, hand-crafted computer software. Page printed 2020-06-07T01:14:15 UTC.